KCMY/CMY METAR and TAF weather

Enter ICAO airport designator
Station Type Date Time Source
KCMY METAR 2018/10/16 21:35 UTC NOAA

KCMY 162135Z AUTO 28015G24KT 10SM CLR 14/M01 A2995 RMK AO2 T01351014


Station Type Date Time Source
KCMY Decoded METAR 2018/10/16 21:35 UTC NOAA

Sparta, Sparta / Fort McCoy Airport, WI, United States (KCMY) 43-57-30N 090-44-16W
Oct 16, 2018 - 05:35 PM EDT / 2018.10.16 2135 UTC
Wind: from the W (280 degrees) at 17 MPH (15 KT) gusting to 28 MPH (24 KT):0
Visibility: 10 mile(s):0
Sky conditions: clear
Temperature: 56.3 F (13.5 C)
Dew Point: 29.5 F (-1.4 C)
Relative Humidity: 35%
Pressure (altimeter): 29.95 in. Hg (1014 hPa)
ob: KCMY 162135Z AUTO 28015G24KT 10SM CLR 14/M01 A2995 RMK AO2 T01351014
cycle: 21

Station Type Date Time Source
KCMY TAF UTC NOAA

Error!


Example: see airport list